createdAt,value
2023-02-05T00:11:20.329Z,21.70
2023-02-05T00:13:49.961Z,21.70
2023-02-05T00:16:22.593Z,21.70
2023-02-05T00:18:52.856Z,21.70
2023-02-05T00:21:24.248Z,21.70
2023-02-05T00:23:55.427Z,21.70
2023-02-05T00:26:25.052Z,21.70
2023-02-05T00:28:55.978Z,21.70
2023-02-05T00:31:26.134Z,21.70
2023-02-05T00:33:56.492Z,21.70
2023-02-05T00:36:27.066Z,21.70
2023-02-05T00:38:56.601Z,21.80
2023-02-05T00:41:26.233Z,21.70
2023-02-05T00:43:55.872Z,21.80
2023-02-05T00:46:25.493Z,21.80
2023-02-05T00:48:55.215Z,21.80
2023-02-05T00:51:24.898Z,21.80
2023-02-05T00:53:54.547Z,21.80
2023-02-05T00:56:24.283Z,21.80
2023-02-05T00:58:54.127Z,21.80
2023-02-05T01:01:23.794Z,21.70
2023-02-05T01:03:53.343Z,21.80
2023-02-05T01:06:23.169Z,21.80
2023-02-05T01:08:52.977Z,21.80
2023-02-05T01:11:23.244Z,21.80
2023-02-05T01:13:52.885Z,21.80
2023-02-05T01:16:22.588Z,21.80
2023-02-05T01:18:52.573Z,21.80
2023-02-05T01:21:22.327Z,21.80
2023-02-05T01:23:51.903Z,21.80
2023-02-05T01:26:21.552Z,21.80
2023-02-05T01:28:51.256Z,21.90
2023-02-05T01:31:22.308Z,21.90
2023-02-05T01:33:52.008Z,21.80
2023-02-05T01:36:21.604Z,21.90
2023-02-05T01:38:51.151Z,21.90
2023-02-05T01:41:21.134Z,21.90
2023-02-05T01:44:08.609Z,21.90
2023-02-05T01:46:40.404Z,21.90
2023-02-05T01:49:14.627Z,21.90
2023-02-05T01:51:45.408Z,21.90
2023-02-05T01:54:15.694Z,21.90
2023-02-05T01:56:55.490Z,21.90
2023-02-05T01:59:29.633Z,21.90
2023-02-05T02:02:01.071Z,21.90
2023-02-05T02:04:54.302Z,22.00
2023-02-05T02:07:26.335Z,22.00
2023-02-05T02:09:56.948Z,22.00
2023-02-05T02:12:32.124Z,22.00
2023-02-05T02:15:07.022Z,22.00
2023-02-05T02:17:42.339Z,22.00
2023-02-05T02:20:19.794Z,22.00
2023-02-05T02:23:28.774Z,22.00
2023-02-05T02:26:37.484Z,22.10
2023-02-05T02:29:07.386Z,22.10
2023-02-05T02:31:51.705Z,22.10
2023-02-05T02:34:27.995Z,22.10
2023-02-05T02:37:23.087Z,22.10
2023-02-05T02:40:12.164Z,22.20
2023-02-05T02:43:00.091Z,22.20
2023-02-05T02:45:33.249Z,22.20
2023-02-05T02:48:03.526Z,22.20
2023-02-05T02:50:42.175Z,22.20
2023-02-05T02:53:23.559Z,22.20
2023-02-05T02:55:55.131Z,22.30
2023-02-05T02:58:50.073Z,22.30
2023-02-05T03:01:24.824Z,22.30
2023-02-05T03:04:01.239Z,22.30
2023-02-05T03:06:34.138Z,22.40
2023-02-05T03:09:15.319Z,22.40
2023-02-05T03:11:44.942Z,22.30
2023-02-05T03:14:15.285Z,22.40
2023-02-05T03:16:44.969Z,22.40
2023-02-05T03:19:14.690Z,22.40
2023-02-05T03:21:49.456Z,22.40
2023-02-05T03:24:19.904Z,22.40
2023-02-05T03:26:49.565Z,22.40
2023-02-05T03:29:28.865Z,22.40
2023-02-05T03:32:30.265Z,22.50
2023-02-05T03:35:28.271Z,22.50
2023-02-05T03:38:22.155Z,22.50
2023-02-05T03:41:01.145Z,22.50
2023-02-05T03:43:56.257Z,22.50
2023-02-05T03:46:43.898Z,22.60
2023-02-05T03:49:54.101Z,22.60
2023-02-05T03:52:33.240Z,22.70
2023-02-05T03:55:15.738Z,22.70
2023-02-05T03:58:07.493Z,22.80
2023-02-05T04:00:37.780Z,22.80
2023-02-05T04:03:07.533Z,22.80
2023-02-05T04:05:37.239Z,22.90
2023-02-05T04:08:07.213Z,22.90
2023-02-05T04:10:36.950Z,22.90
2023-02-05T04:13:06.649Z,22.90
2023-02-05T04:15:37.090Z,23.00
2023-02-05T04:18:06.744Z,23.00
2023-02-05T04:20:36.680Z,23.00
2023-02-05T04:23:06.652Z,23.00
2023-02-05T04:25:38.193Z,23.10
2023-02-05T04:28:08.605Z,23.10
2023-02-05T04:30:38.490Z,23.10
2023-02-05T04:33:08.139Z,23.10
2023-02-05T04:35:37.809Z,23.10
2023-02-05T04:38:07.369Z,23.20
2023-02-05T04:40:37.027Z,23.20
2023-02-05T04:43:06.691Z,23.20
2023-02-05T04:45:37.544Z,23.20
2023-02-05T04:48:08.336Z,23.20
2023-02-05T04:50:39.762Z,23.30
2023-02-05T04:53:09.600Z,23.30
2023-02-05T04:55:39.323Z,23.30
2023-02-05T04:58:08.950Z,23.40
2023-02-05T05:00:38.560Z,23.40
2023-02-05T05:03:08.261Z,23.40
2023-02-05T05:05:38.241Z,23.40
2023-02-05T05:08:07.891Z,23.40
2023-02-05T05:10:40.242Z,23.50
2023-02-05T05:13:09.876Z,23.50
2023-02-05T05:15:40.207Z,23.50
2023-02-05T05:18:09.900Z,23.50
2023-02-05T05:20:40.724Z,23.60
2023-02-05T05:23:11.620Z,23.60
2023-02-05T05:25:46.775Z,23.60
2023-02-05T05:28:18.136Z,23.60
2023-02-05T05:30:49.060Z,23.70
2023-02-05T05:33:18.737Z,23.70
2023-02-05T05:35:48.548Z,23.70
2023-02-05T05:38:18.395Z,23.70
2023-02-05T05:41:07.577Z,23.80
2023-02-05T05:43:56.903Z,23.80
2023-02-05T05:46:28.833Z,23.80
2023-02-05T05:49:00.518Z,23.80
2023-02-05T05:51:32.063Z,23.80
2023-02-05T05:54:01.924Z,23.80
2023-02-05T05:56:31.660Z,23.80
2023-02-05T05:59:03.423Z,23.90
2023-02-05T06:01:33.234Z,23.90
2023-02-05T06:04:04.288Z,23.90
2023-02-05T06:06:34.053Z,23.90
2023-02-05T06:09:03.693Z,23.90
2023-02-05T06:11:33.465Z,23.90
2023-02-05T06:14:03.186Z,23.90
2023-02-05T06:16:33.605Z,23.90
2023-02-05T06:19:03.228Z,23.90
2023-02-05T06:21:32.884Z,24.00
2023-02-05T06:24:02.900Z,24.00
2023-02-05T06:26:32.667Z,24.00
2023-02-05T06:29:04.973Z,24.00
2023-02-05T06:31:35.106Z,24.00
2023-02-05T06:34:04.732Z,24.10
2023-02-05T06:36:34.492Z,24.10
2023-02-05T06:39:04.119Z,24.10
2023-02-05T06:41:33.713Z,24.10
2023-02-05T06:44:03.585Z,24.10
2023-02-05T06:46:33.211Z,24.10
2023-02-05T06:49:02.773Z,24.20
2023-02-05T06:51:32.470Z,24.20
2023-02-05T06:54:03.531Z,24.20
2023-02-05T06:56:33.082Z,24.20
2023-02-05T06:59:02.752Z,24.30
2023-02-05T07:01:32.422Z,24.30
2023-02-05T07:04:01.997Z,24.30
2023-02-05T07:06:31.805Z,24.40
2023-02-05T07:09:01.437Z,24.40
2023-02-05T07:11:31.209Z,24.30
2023-02-05T07:14:04.105Z,24.40
2023-02-05T07:16:33.893Z,24.40
2023-02-05T07:19:03.548Z,24.50
2023-02-05T07:21:33.219Z,24.50
2023-02-05T07:24:03.345Z,24.50
2023-02-05T07:26:33.044Z,24.50
2023-02-05T07:29:02.713Z,24.50
2023-02-05T07:31:32.551Z,24.50
2023-02-05T07:34:02.221Z,24.50
2023-02-05T07:36:31.968Z,24.60
2023-02-05T07:39:01.573Z,24.60
2023-02-05T07:41:31.266Z,24.60
2023-02-05T07:44:01.380Z,24.60
2023-02-05T07:46:31.141Z,24.60
2023-02-05T07:49:00.803Z,24.60
2023-02-05T07:51:30.569Z,24.60
2023-02-05T07:54:00.304Z,24.70
2023-02-05T07:56:30.017Z,24.70
2023-02-05T07:58:59.646Z,24.70
2023-02-05T08:01:29.508Z,24.70
2023-02-05T08:03:59.109Z,24.70
2023-02-05T08:06:28.905Z,24.80
2023-02-05T08:08:59.087Z,24.80
2023-02-05T08:11:30.192Z,24.80
2023-02-05T08:14:02.783Z,24.80
2023-02-05T08:16:32.538Z,24.80
2023-02-05T08:19:02.846Z,24.80
2023-02-05T08:21:32.502Z,24.80
2023-02-05T08:24:03.492Z,24.80
2023-02-05T08:26:33.493Z,24.80
2023-02-05T08:29:03.246Z,24.90
2023-02-05T08:31:32.957Z,24.90
2023-02-05T08:34:03.097Z,24.90
2023-02-05T08:36:32.909Z,24.90
2023-02-05T08:39:02.641Z,24.90
2023-02-05T08:41:32.365Z,24.90
2023-02-05T08:44:02.001Z,25.00
2023-02-05T08:46:40.365Z,25.00
2023-02-05T08:49:18.685Z,25.00
2023-02-05T08:51:48.582Z,25.00
2023-02-05T08:54:18.293Z,25.00
2023-02-05T08:56:51.147Z,25.10
2023-02-05T08:59:21.613Z,25.10
2023-02-05T09:01:51.843Z,25.10
2023-02-05T09:04:23.920Z,25.10
2023-02-05T09:06:54.035Z,25.10
2023-02-05T09:09:23.952Z,25.10
2023-02-05T09:11:53.652Z,25.10
2023-02-05T09:14:23.221Z,25.10
2023-02-05T09:16:52.753Z,25.10
2023-02-05T09:19:23.335Z,25.10
2023-02-05T09:21:54.178Z,25.10
2023-02-05T09:24:24.097Z,25.10
2023-02-05T09:26:54.275Z,25.10
2023-02-05T09:29:23.827Z,25.10
2023-02-05T09:31:53.748Z,25.10
2023-02-05T09:34:23.605Z,25.10
2023-02-05T09:36:53.282Z,25.10
2023-02-05T09:39:59.194Z,25.10
2023-02-05T09:42:38.375Z,25.10
2023-02-05T09:45:44.404Z,25.10
2023-02-05T09:48:53.035Z,25.10
2023-02-05T09:51:37.355Z,25.10
2023-02-05T09:54:33.425Z,25.10
2023-02-05T09:57:09.149Z,25.10
2023-02-05T09:59:39.142Z,25.10
2023-02-05T10:02:39.564Z,25.10
2023-02-05T10:05:16.840Z,25.10
2023-02-05T10:08:10.793Z,25.10
2023-02-05T10:10:51.993Z,25.10
2023-02-05T10:13:37.806Z,25.00
2023-02-05T10:16:43.174Z,25.00
2023-02-05T10:19:40.377Z,25.00
2023-02-05T10:22:29.086Z,25.00
2023-02-05T10:25:26.436Z,24.90
2023-02-05T10:28:23.706Z,25.00
2023-02-05T10:31:00.593Z,24.90
2023-02-05T10:33:58.332Z,24.90
2023-02-05T10:36:29.265Z,24.90
2023-02-05T10:39:00.890Z,24.90
2023-02-05T10:41:40.004Z,24.90
2023-02-05T10:44:33.404Z,24.90
2023-02-05T10:47:20.536Z,24.90
2023-02-05T10:49:58.667Z,24.80
2023-02-05T10:52:27.866Z,24.80
2023-02-05T10:54:57.840Z,24.80
2023-02-05T10:57:30.686Z,24.80
2023-02-05T11:00:15.151Z,24.70
2023-02-05T11:02:49.645Z,24.70
2023-02-05T11:05:39.521Z,24.70
2023-02-05T11:08:48.914Z,24.70
2023-02-05T11:11:31.584Z,24.70
2023-02-05T11:14:08.478Z,24.60
2023-02-05T11:16:45.861Z,24.60
2023-02-05T11:19:24.063Z,24.60
2023-02-05T11:22:01.067Z,24.50
2023-02-05T11:24:37.779Z,24.50
2023-02-05T11:27:32.311Z,24.50
2023-02-05T11:30:52.366Z,24.50
2023-02-05T11:33:32.970Z,24.50
2023-02-05T11:36:06.200Z,24.40
2023-02-05T11:38:58.153Z,24.40
2023-02-05T11:41:33.917Z,24.40
2023-02-05T11:44:05.407Z,24.30
2023-02-05T11:46:44.603Z,24.30
2023-02-05T11:49:24.455Z,24.30
2023-02-05T11:51:57.385Z,24.30
2023-02-05T11:54:35.086Z,24.20
2023-02-05T11:57:26.249Z,24.30
2023-02-05T12:00:03.141Z,24.20
2023-02-05T12:02:38.384Z,24.20
2023-02-05T12:05:33.566Z,24.20
2023-02-05T12:08:30.487Z,24.20
2023-02-05T12:11:58.884Z,24.10
2023-02-05T12:15:07.737Z,24.10
2023-02-05T12:17:44.737Z,24.10
2023-02-05T12:20:38.637Z,24.10
2023-02-05T12:23:47.938Z,24.10
2023-02-05T12:26:32.639Z,24.00
2023-02-05T12:29:30.311Z,24.00
2023-02-05T12:32:25.182Z,24.00
2023-02-05T12:35:34.141Z,23.90
2023-02-05T12:38:32.549Z,23.90
2023-02-05T12:41:31.416Z,23.90
2023-02-05T12:44:32.308Z,23.90
2023-02-05T12:47:41.211Z,23.80
2023-02-05T12:50:49.907Z,23.80
2023-02-05T12:53:43.633Z,23.80
2023-02-05T12:56:52.339Z,23.80
2023-02-05T12:59:53.457Z,23.80
2023-02-05T13:02:44.447Z,23.80
2023-02-05T13:05:39.347Z,23.80
2023-02-05T13:08:24.855Z,23.80
2023-02-05T13:11:12.807Z,23.80
2023-02-05T13:13:47.597Z,23.80
2023-02-05T13:16:20.654Z,23.80
2023-02-05T13:19:24.391Z,23.70
2023-02-05T13:22:17.354Z,23.80
2023-02-05T13:25:21.086Z,23.80
2023-02-05T13:28:17.773Z,23.70
2023-02-05T13:30:53.235Z,23.70
2023-02-05T13:33:23.108Z,23.70
2023-02-05T13:36:31.909Z,23.70
2023-02-05T13:39:40.561Z,23.70
2023-02-05T13:42:43.866Z,23.70
2023-02-05T13:45:52.580Z,23.60
2023-02-05T13:48:49.860Z,23.60
2023-02-05T13:51:40.650Z,23.60
2023-02-05T13:54:44.085Z,23.60
2023-02-05T13:57:52.806Z,23.60
2023-02-05T14:00:22.742Z,23.60
2023-02-05T14:02:57.984Z,23.60
2023-02-05T14:05:44.870Z,23.50
2023-02-05T14:08:33.236Z,23.50
2023-02-05T14:11:07.618Z,23.50
2023-02-05T14:13:37.808Z,23.50
2023-02-05T14:16:35.581Z,23.50
2023-02-05T14:19:13.452Z,23.50
2023-02-05T14:22:01.427Z,23.50
2023-02-05T14:24:50.110Z,23.50
2023-02-05T14:27:48.688Z,23.50
2023-02-05T14:30:39.898Z,23.50
2023-02-05T14:33:39.902Z,23.50
2023-02-05T14:36:32.874Z,23.50
2023-02-05T14:39:31.908Z,23.50
2023-02-05T14:42:07.205Z,23.50
2023-02-05T14:44:44.101Z,23.50
2023-02-05T14:47:36.364Z,23.40
2023-02-05T14:50:12.438Z,23.40
2023-02-05T14:53:06.368Z,23.40
2023-02-05T14:55:45.170Z,23.40
2023-02-05T14:58:37.532Z,23.30
2023-02-05T15:01:46.511Z,23.30
2023-02-05T15:04:47.166Z,23.30
2023-02-05T15:07:24.825Z,23.30
2023-02-05T15:10:09.428Z,23.30
2023-02-05T15:13:06.145Z,23.30
2023-02-05T15:15:38.799Z,23.30
2023-02-05T15:18:32.149Z,23.30
2023-02-05T15:21:02.869Z,23.30
2023-02-05T15:23:40.195Z,23.30
2023-02-05T15:26:21.810Z,23.30
2023-02-05T15:29:16.226Z,23.30
2023-02-05T15:32:13.403Z,23.30
2023-02-05T15:34:51.081Z,23.30
2023-02-05T15:37:37.479Z,23.30
2023-02-05T15:40:32.411Z,23.30
2023-02-05T15:43:11.445Z,23.30
2023-02-05T15:45:46.541Z,23.30
2023-02-05T15:48:26.525Z,23.30
2023-02-05T15:51:28.769Z,23.20
2023-02-05T15:54:00.783Z,23.20
2023-02-05T15:56:43.854Z,23.20
2023-02-05T15:59:19.235Z,23.20
2023-02-05T16:02:16.808Z,23.20
2023-02-05T16:04:46.742Z,23.10
2023-02-05T16:07:26.520Z,23.10
2023-02-05T16:09:59.119Z,23.20
2023-02-05T16:12:29.388Z,23.10
2023-02-05T16:15:08.294Z,23.20
2023-02-05T16:17:52.997Z,23.20
2023-02-05T16:20:35.930Z,23.10
2023-02-05T16:23:15.839Z,23.10
2023-02-05T16:25:54.707Z,23.10
2023-02-05T16:28:39.625Z,23.10
2023-02-05T16:31:11.078Z,23.10
2023-02-05T16:33:48.238Z,23.10
2023-02-05T16:36:32.029Z,23.10
2023-02-05T16:39:05.216Z,23.10
2023-02-05T16:41:41.945Z,23.10
2023-02-05T16:44:29.445Z,23.10
2023-02-05T16:47:17.047Z,23.00
2023-02-05T16:49:50.972Z,23.00
2023-02-05T16:52:33.406Z,23.00
2023-02-05T16:55:41.215Z,23.00
2023-02-05T16:58:14.807Z,23.00
2023-02-05T17:00:52.815Z,22.90
2023-02-05T17:03:22.476Z,22.90
2023-02-05T17:06:06.156Z,22.90
2023-02-05T17:08:39.238Z,22.90
2023-02-05T17:11:29.641Z,22.90
2023-02-05T17:14:38.330Z,22.90
2023-02-05T17:17:21.308Z,22.90
2023-02-05T17:20:25.318Z,22.90
2023-02-05T17:23:16.612Z,22.80
2023-02-05T17:25:57.516Z,22.80
2023-02-05T17:28:29.691Z,22.80
2023-02-05T17:31:00.356Z,22.80
2023-02-05T17:33:31.264Z,22.80
2023-02-05T17:36:00.816Z,22.80
2023-02-05T17:38:30.653Z,22.80
2023-02-05T17:41:19.943Z,22.80
2023-02-05T17:43:49.440Z,22.80
2023-02-05T17:46:19.407Z,22.80
2023-02-05T17:48:48.988Z,22.80
2023-02-05T17:51:23.742Z,22.80
2023-02-05T17:53:53.701Z,22.80
2023-02-05T17:56:23.800Z,22.80
2023-02-05T17:58:54.658Z,22.80
2023-02-05T18:01:24.460Z,22.70
2023-02-05T18:03:53.962Z,22.70
2023-02-05T18:06:23.633Z,22.70
2023-02-05T18:08:53.101Z,22.60
2023-02-05T18:11:22.839Z,22.60
2023-02-05T18:13:52.531Z,22.60
2023-02-05T18:16:22.231Z,22.60
2023-02-05T18:18:52.183Z,22.60
2023-02-05T18:21:23.310Z,22.60
2023-02-05T18:23:54.453Z,22.60
2023-02-05T18:26:24.548Z,22.60
2023-02-05T18:28:54.247Z,22.50
2023-02-05T18:31:24.084Z,22.50
2023-02-05T18:33:55.427Z,22.50
2023-02-05T18:36:25.657Z,22.50
2023-02-05T18:38:57.474Z,22.50
2023-02-05T18:41:30.333Z,22.40
2023-02-05T18:44:00.667Z,22.50
2023-02-05T18:46:30.978Z,22.50
2023-02-05T18:49:00.709Z,22.50
2023-02-05T18:51:30.641Z,22.50
2023-02-05T18:54:00.698Z,22.40
2023-02-05T18:56:31.313Z,22.40
2023-02-05T18:59:09.356Z,22.40
2023-02-05T19:01:40.007Z,22.40
2023-02-05T19:04:14.960Z,22.40
2023-02-05T19:06:46.424Z,22.40
2023-02-05T19:09:16.156Z,22.40
2023-02-05T19:11:46.662Z,22.40
2023-02-05T19:14:18.335Z,22.30
2023-02-05T19:16:48.784Z,22.30
2023-02-05T19:19:24.095Z,22.30
2023-02-05T19:22:03.460Z,22.30
2023-02-05T19:24:33.251Z,22.30
2023-02-05T19:27:03.004Z,22.30
2023-02-05T19:29:32.793Z,22.30
2023-02-05T19:32:02.370Z,22.30
2023-02-05T19:34:32.770Z,22.30
2023-02-05T19:37:03.046Z,22.30
2023-02-05T19:39:32.773Z,22.30
2023-02-05T19:42:02.368Z,22.30
2023-02-05T19:44:33.889Z,22.30
2023-02-05T19:47:03.466Z,22.20
2023-02-05T19:49:33.084Z,22.20
2023-02-05T19:52:03.242Z,22.20
2023-02-05T19:54:32.953Z,22.20
2023-02-05T19:57:02.632Z,22.20
2023-02-05T19:59:32.358Z,22.20
2023-02-05T20:02:01.983Z,22.20
2023-02-05T20:04:32.085Z,22.20
2023-02-05T20:07:02.668Z,22.20
2023-02-05T20:09:33.733Z,22.20
2023-02-05T20:12:03.462Z,22.20
2023-02-05T20:14:33.205Z,22.20
2023-02-05T20:17:02.884Z,22.20
2023-02-05T20:19:32.464Z,22.20
2023-02-05T20:22:02.204Z,22.10
2023-02-05T20:24:31.882Z,22.10
2023-02-05T20:27:01.587Z,22.10
2023-02-05T20:29:50.896Z,22.10
2023-02-05T20:32:20.591Z,22.10
2023-02-05T20:34:51.863Z,22.10
2023-02-05T20:37:21.558Z,22.10
2023-02-05T20:39:51.080Z,22.10
2023-02-05T20:42:20.808Z,22.00
2023-02-05T20:44:50.460Z,22.10
2023-02-05T20:47:20.013Z,22.00
2023-02-05T20:49:49.725Z,22.00
2023-02-05T20:52:19.332Z,22.00
2023-02-05T20:54:48.916Z,22.00
2023-02-05T20:57:20.426Z,22.00
2023-02-05T20:59:50.602Z,22.00
2023-02-05T21:02:21.438Z,22.00
2023-02-05T21:04:52.711Z,22.00
2023-02-05T21:07:26.748Z,22.00
2023-02-05T21:09:56.605Z,22.00
2023-02-05T21:12:30.781Z,22.00
2023-02-05T21:15:00.524Z,22.00
2023-02-05T21:17:30.192Z,22.00
2023-02-05T21:19:59.776Z,22.00
2023-02-05T21:22:30.634Z,22.00
2023-02-05T21:25:00.198Z,22.00
2023-02-05T21:27:29.813Z,22.00
2023-02-05T21:29:59.580Z,22.00
2023-02-05T21:32:29.230Z,21.90
2023-02-05T21:34:59.422Z,21.90
2023-02-05T21:37:29.106Z,21.90
2023-02-05T21:40:08.892Z,21.80
2023-02-05T21:42:39.082Z,21.70
2023-02-05T21:45:09.084Z,21.70
2023-02-05T21:47:39.181Z,21.60
2023-02-05T21:50:09.250Z,21.60
2023-02-05T21:52:38.952Z,21.60
2023-02-05T21:55:09.077Z,21.60
2023-02-05T21:57:38.708Z,21.60
2023-02-05T22:00:08.569Z,21.70
2023-02-05T22:02:39.486Z,21.70
2023-02-05T22:05:09.671Z,21.70
2023-02-05T22:07:40.275Z,21.70
2023-02-05T22:10:10.260Z,21.70
2023-02-05T22:12:39.905Z,21.70
2023-02-05T22:15:09.778Z,21.70
2023-02-05T22:17:39.511Z,21.70
2023-02-05T22:20:09.607Z,21.70
2023-02-05T22:22:39.278Z,21.80
2023-02-05T22:25:09.121Z,21.80
2023-02-05T22:27:38.815Z,21.80
2023-02-05T22:30:08.772Z,21.80
2023-02-05T22:32:38.436Z,21.80
2023-02-05T22:35:09.228Z,21.80
2023-02-05T22:37:38.825Z,21.80
2023-02-05T22:40:09.290Z,21.80
2023-02-05T22:42:38.792Z,21.80
2023-02-05T22:45:08.631Z,21.80
2023-02-05T22:47:38.258Z,21.80
2023-02-05T22:50:08.066Z,21.80
2023-02-05T22:52:37.602Z,21.80
2023-02-05T22:55:07.518Z,21.80
2023-02-05T22:57:37.009Z,21.80
2023-02-05T23:00:06.972Z,21.80
2023-02-05T23:02:36.629Z,21.80
2023-02-05T23:05:06.717Z,21.90
2023-02-05T23:07:36.399Z,21.90
2023-02-05T23:10:06.348Z,21.80
2023-02-05T23:12:35.881Z,21.90
2023-02-05T23:15:05.499Z,21.90
2023-02-05T23:17:35.205Z,21.90
2023-02-05T23:20:05.523Z,21.90
2023-02-05T23:22:35.122Z,21.90
2023-02-05T23:25:07.151Z,21.90
2023-02-05T23:27:38.409Z,21.90
2023-02-05T23:30:08.974Z,21.90
2023-02-05T23:32:38.693Z,21.90
2023-02-05T23:35:09.954Z,21.90
2023-02-05T23:37:39.714Z,21.90
2023-02-05T23:40:09.792Z,21.90
2023-02-05T23:42:39.675Z,21.90
2023-02-05T23:45:09.569Z,21.80
2023-02-05T23:47:39.142Z,21.80
2023-02-05T23:50:08.830Z,21.70
2023-02-05T23:52:38.476Z,21.70
2023-02-05T23:55:08.423Z,21.70
2023-02-05T23:57:38.000Z,21.70
